sensor_id;sensor_type;location;lat;lon;timestamp;P1;durP1;ratioP1;P2;durP2;ratioP2
26620;SDS011;14253;44.840;10.444;2022-12-01T14:27:50;70.72;;;36.22;;
26620;SDS011;14253;44.840;10.444;2022-12-01T14:38:52;74.35;;;40.33;;
26620;SDS011;14253;44.840;10.444;2022-12-01T14:49:52;69.65;;;35.55;;
26620;SDS011;14253;44.840;10.444;2022-12-01T14:52:39;64.90;;;36.15;;
26620;SDS011;14253;44.840;10.444;2022-12-01T14:55:16;68.55;;;36.47;;
26620;SDS011;14253;44.840;10.444;2022-12-01T14:57:50;69.28;;;37.17;;
26620;SDS011;14253;44.840;10.444;2022-12-01T15:05:36;69.45;;;34.92;;
26620;SDS011;14253;44.840;10.444;2022-12-01T15:08:39;74.50;;;35.53;;
26620;SDS011;14253;44.840;10.444;2022-12-01T15:11:00;72.55;;;38.83;;
26620;SDS011;14253;44.840;10.444;2022-12-01T15:13:31;74.05;;;39.33;;
26620;SDS011;14253;44.840;10.444;2022-12-01T15:16:12;69.30;;;38.67;;
26620;SDS011;14253;44.840;10.444;2022-12-01T15:18:41;72.43;;;37.40;;
26620;SDS011;14253;44.840;10.444;2022-12-01T15:26:45;75.32;;;38.42;;
26620;SDS011;14253;44.840;10.444;2022-12-01T15:29:17;78.18;;;40.22;;
26620;SDS011;14253;44.840;10.444;2022-12-01T15:31:59;75.40;;;40.95;;
26620;SDS011;14253;44.840;10.444;2022-12-01T15:34:31;71.53;;;38.00;;
26620;SDS011;14253;44.840;10.444;2022-12-01T15:37:03;74.00;;;38.17;;
26620;SDS011;14253;44.840;10.444;2022-12-01T15:39:36;78.40;;;39.83;;
26620;SDS011;14253;44.840;10.444;2022-12-01T15:42:15;76.43;;;39.15;;
26620;SDS011;14253;44.840;10.444;2022-12-01T15:44:58;82.63;;;41.47;;
26620;SDS011;14253;44.840;10.444;2022-12-01T15:47:34;80.97;;;41.90;;
26620;SDS011;14253;44.840;10.444;2022-12-01T15:50:28;81.00;;;40.53;;
26620;SDS011;14253;44.840;10.444;2022-12-01T15:53:16;80.50;;;41.25;;
26620;SDS011;14253;44.840;10.444;2022-12-01T15:55:48;83.40;;;42.92;;
26620;SDS011;14253;44.840;10.444;2022-12-01T15:58:19;85.30;;;42.25;;
26620;SDS011;14253;44.840;10.444;2022-12-01T16:00:55;88.60;;;42.47;;
26620;SDS011;14253;44.840;10.444;2022-12-01T16:03:32;81.15;;;39.78;;
26620;SDS011;14253;44.840;10.444;2022-12-01T16:06:11;85.40;;;42.95;;
26620;SDS011;14253;44.840;10.444;2022-12-01T16:08:37;87.57;;;43.53;;
26620;SDS011;14253;44.840;10.444;2022-12-01T16:11:16;88.90;;;42.90;;
26620;SDS011;14253;44.840;10.444;2022-12-01T16:16:30;84.03;;;44.63;;
26620;SDS011;14253;44.840;10.444;2022-12-01T16:19:00;83.13;;;42.05;;
26620;SDS011;14253;44.840;10.444;2022-12-01T16:29:30;85.85;;;44.75;;
26620;SDS011;14253;44.840;10.444;2022-12-01T16:32:09;83.95;;;43.90;;
26620;SDS011;14253;44.840;10.444;2022-12-01T16:34:41;95.63;;;47.90;;
26620;SDS011;14253;44.840;10.444;2022-12-01T16:37:09;105.00;;;53.33;;
26620;SDS011;14253;44.840;10.444;2022-12-01T16:39:36;124.75;;;59.75;;
26620;SDS011;14253;44.840;10.444;2022-12-01T16:42:02;100.03;;;50.70;;
26620;SDS011;14253;44.840;10.444;2022-12-01T16:44:28;98.97;;;49.25;;
26620;SDS011;14253;44.840;10.444;2022-12-01T16:46:54;99.20;;;47.53;;
26620;SDS011;14253;44.840;10.444;2022-12-01T16:49:21;94.93;;;46.50;;
26620;SDS011;14253;44.840;10.444;2022-12-01T16:51:47;95.90;;;47.08;;
26620;SDS011;14253;44.840;10.444;2022-12-01T16:54:13;89.93;;;44.83;;
26620;SDS011;14253;44.840;10.444;2022-12-01T16:56:39;99.32;;;47.53;;
26620;SDS011;14253;44.840;10.444;2022-12-01T16:59:05;109.30;;;48.38;;
26620;SDS011;14253;44.840;10.444;2022-12-01T17:01:31;105.32;;;49.60;;
26620;SDS011;14253;44.840;10.444;2022-12-01T17:03:57;98.85;;;46.63;;
26620;SDS011;14253;44.840;10.444;2022-12-01T17:06:23;108.72;;;50.33;;
26620;SDS011;14253;44.840;10.444;2022-12-01T17:08:49;107.18;;;51.13;;
26620;SDS011;14253;44.840;10.444;2022-12-01T17:11:15;112.05;;;52.65;;
26620;SDS011;14253;44.840;10.444;2022-12-01T17:13:41;112.15;;;55.08;;
26620;SDS011;14253;44.840;10.444;2022-12-01T17:16:07;127.80;;;55.70;;
26620;SDS011;14253;44.840;10.444;2022-12-01T17:18:35;119.45;;;55.95;;
26620;SDS011;14253;44.840;10.444;2022-12-01T17:21:05;119.03;;;56.22;;
26620;SDS011;14253;44.840;10.444;2022-12-01T17:23:34;122.63;;;56.95;;
26620;SDS011;14253;44.840;10.444;2022-12-01T17:26:05;124.80;;;57.95;;
26620;SDS011;14253;44.840;10.444;2022-12-01T17:28:33;123.78;;;56.42;;
26620;SDS011;14253;44.840;10.444;2022-12-01T17:30:59;127.25;;;58.08;;
26620;SDS011;14253;44.840;10.444;2022-12-01T17:33:26;124.97;;;58.35;;
26620;SDS011;14253;44.840;10.444;2022-12-01T17:35:52;129.15;;;59.15;;
26620;SDS011;14253;44.840;10.444;2022-12-01T17:38:18;118.68;;;56.03;;
26620;SDS011;14253;44.840;10.444;2022-12-01T17:40:44;116.50;;;54.80;;
26620;SDS011;14253;44.840;10.444;2022-12-01T17:43:09;103.90;;;51.15;;
26620;SDS011;14253;44.840;10.444;2022-12-01T17:45:35;114.53;;;52.13;;
26620;SDS011;14253;44.840;10.444;2022-12-01T17:48:06;115.57;;;53.25;;
26620;SDS011;14253;44.840;10.444;2022-12-01T17:50:33;111.50;;;52.90;;
26620;SDS011;14253;44.840;10.444;2022-12-01T17:52:59;110.88;;;51.95;;
26620;SDS011;14253;44.840;10.444;2022-12-01T17:55:24;115.30;;;54.10;;
26620;SDS011;14253;44.840;10.444;2022-12-01T17:57:50;105.95;;;51.70;;
26620;SDS011;14253;44.840;10.444;2022-12-01T18:00:16;110.25;;;51.60;;
26620;SDS011;14253;44.840;10.444;2022-12-01T18:02:43;93.38;;;48.30;;
26620;SDS011;14253;44.840;10.444;2022-12-01T18:05:11;96.25;;;46.90;;
26620;SDS011;14253;44.840;10.444;2022-12-01T18:07:37;160.57;;;81.60;;
26620;SDS011;14253;44.840;10.444;2022-12-01T18:10:03;135.70;;;73.90;;
26620;SDS011;14253;44.840;10.444;2022-12-01T18:12:29;111.13;;;55.20;;
26620;SDS011;14253;44.840;10.444;2022-12-01T18:14:55;100.28;;;49.08;;
26620;SDS011;14253;44.840;10.444;2022-12-01T18:17:21;101.45;;;48.35;;
26620;SDS011;14253;44.840;10.444;2022-12-01T18:19:47;108.15;;;51.10;;
26620;SDS011;14253;44.840;10.444;2022-12-01T18:22:13;94.78;;;45.30;;
26620;SDS011;14253;44.840;10.444;2022-12-01T18:24:38;93.47;;;46.67;;
26620;SDS011;14253;44.840;10.444;2022-12-01T18:27:04;90.10;;;45.60;;
26620;SDS011;14253;44.840;10.444;2022-12-01T18:29:30;120.60;;;62.95;;
26620;SDS011;14253;44.840;10.444;2022-12-01T18:31:57;106.97;;;56.03;;
26620;SDS011;14253;44.840;10.444;2022-12-01T18:34:27;96.00;;;51.08;;
26620;SDS011;14253;44.840;10.444;2022-12-01T18:36:56;86.28;;;45.90;;
26620;SDS011;14253;44.840;10.444;2022-12-01T18:39:22;78.70;;;44.00;;
26620;SDS011;14253;44.840;10.444;2022-12-01T18:41:48;84.20;;;44.33;;
26620;SDS011;14253;44.840;10.444;2022-12-01T18:44:14;88.10;;;46.60;;
26620;SDS011;14253;44.840;10.444;2022-12-01T18:46:40;94.82;;;50.53;;
26620;SDS011;14253;44.840;10.444;2022-12-01T18:49:07;102.72;;;50.08;;
26620;SDS011;14253;44.840;10.444;2022-12-01T18:51:34;93.70;;;45.47;;
26620;SDS011;14253;44.840;10.444;2022-12-01T18:54:02;90.35;;;47.45;;
26620;SDS011;14253;44.840;10.444;2022-12-01T18:56:29;93.45;;;49.75;;
26620;SDS011;14253;44.840;10.444;2022-12-01T18:58:56;90.35;;;47.08;;
26620;SDS011;14253;44.840;10.444;2022-12-01T19:01:25;92.25;;;46.75;;
26620;SDS011;14253;44.840;10.444;2022-12-01T19:03:56;93.22;;;49.15;;
26620;SDS011;14253;44.840;10.444;2022-12-01T19:06:23;106.88;;;55.05;;
26620;SDS011;14253;44.840;10.444;2022-12-01T19:08:50;95.20;;;50.65;;
26620;SDS011;14253;44.840;10.444;2022-12-01T19:11:17;99.72;;;50.50;;
26620;SDS011;14253;44.840;10.444;2022-12-01T19:13:43;118.28;;;61.33;;
26620;SDS011;14253;44.840;10.444;2022-12-01T19:16:14;110.78;;;57.50;;
26620;SDS011;14253;44.840;10.444;2022-12-01T19:18:41;100.80;;;55.25;;
26620;SDS011;14253;44.840;10.444;2022-12-01T19:21:09;99.78;;;52.63;;
26620;SDS011;14253;44.840;10.444;2022-12-01T19:23:36;98.45;;;52.17;;
26620;SDS011;14253;44.840;10.444;2022-12-01T19:26:07;91.38;;;48.95;;
26620;SDS011;14253;44.840;10.444;2022-12-01T19:28:38;87.03;;;45.92;;
26620;SDS011;14253;44.840;10.444;2022-12-01T19:31:09;89.82;;;48.35;;
26620;SDS011;14253;44.840;10.444;2022-12-01T19:33:37;86.78;;;47.08;;
26620;SDS011;14253;44.840;10.444;2022-12-01T19:36:04;87.70;;;47.25;;
26620;SDS011;14253;44.840;10.444;2022-12-01T19:38:34;92.70;;;49.08;;
26620;SDS011;14253;44.840;10.444;2022-12-01T19:41:00;106.65;;;54.00;;
26620;SDS011;14253;44.840;10.444;2022-12-01T19:43:26;93.88;;;50.53;;
26620;SDS011;14253;44.840;10.444;2022-12-01T19:45:52;106.20;;;54.40;;
26620;SDS011;14253;44.840;10.444;2022-12-01T19:48:18;123.78;;;66.50;;
26620;SDS011;14253;44.840;10.444;2022-12-01T19:50:44;115.53;;;62.70;;
26620;SDS011;14253;44.840;10.444;2022-12-01T19:53:10;97.72;;;53.28;;
26620;SDS011;14253;44.840;10.444;2022-12-01T19:55:36;116.22;;;61.50;;
26620;SDS011;14253;44.840;10.444;2022-12-01T19:58:03;83.03;;;43.25;;
26620;SDS011;14253;44.840;10.444;2022-12-01T20:00:30;86.88;;;45.63;;
26620;SDS011;14253;44.840;10.444;2022-12-01T20:02:57;89.20;;;44.65;;
26620;SDS011;14253;44.840;10.444;2022-12-01T20:05:24;98.28;;;47.80;;
26620;SDS011;14253;44.840;10.444;2022-12-01T20:07:51;91.15;;;48.58;;
26620;SDS011;14253;44.840;10.444;2022-12-01T20:10:17;87.97;;;44.70;;
26620;SDS011;14253;44.840;10.444;2022-12-01T20:12:47;84.28;;;43.08;;
26620;SDS011;14253;44.840;10.444;2022-12-01T20:15:15;90.80;;;44.83;;
26620;SDS011;14253;44.840;10.444;2022-12-01T20:17:44;87.90;;;43.95;;
26620;SDS011;14253;44.840;10.444;2022-12-01T20:20:10;88.43;;;43.97;;
26620;SDS011;14253;44.840;10.444;2022-12-01T20:22:36;99.70;;;48.15;;
26620;SDS011;14253;44.840;10.444;2022-12-01T20:25:05;100.00;;;50.22;;
26620;SDS011;14253;44.840;10.444;2022-12-01T20:27:34;96.60;;;47.28;;
26620;SDS011;14253;44.840;10.444;2022-12-01T20:30:00;90.80;;;45.55;;
26620;SDS011;14253;44.840;10.444;2022-12-01T20:32:26;91.15;;;45.20;;
26620;SDS011;14253;44.840;10.444;2022-12-01T20:34:52;88.63;;;46.33;;
26620;SDS011;14253;44.840;10.444;2022-12-01T20:37:18;102.72;;;51.50;;
26620;SDS011;14253;44.840;10.444;2022-12-01T20:39:44;90.15;;;48.13;;
26620;SDS011;14253;44.840;10.444;2022-12-01T20:42:10;95.80;;;46.53;;
26620;SDS011;14253;44.840;10.444;2022-12-01T20:44:36;103.35;;;50.92;;
26620;SDS011;14253;44.840;10.444;2022-12-01T20:47:04;92.35;;;45.97;;
26620;SDS011;14253;44.840;10.444;2022-12-01T20:49:30;89.63;;;47.38;;
26620;SDS011;14253;44.840;10.444;2022-12-01T20:51:56;90.03;;;46.03;;
26620;SDS011;14253;44.840;10.444;2022-12-01T20:54:22;87.88;;;45.22;;
26620;SDS011;14253;44.840;10.444;2022-12-01T20:56:47;93.15;;;46.60;;
26620;SDS011;14253;44.840;10.444;2022-12-01T20:59:13;89.65;;;46.15;;
26620;SDS011;14253;44.840;10.444;2022-12-01T21:01:39;96.88;;;48.15;;
26620;SDS011;14253;44.840;10.444;2022-12-01T21:04:05;97.13;;;48.65;;
26620;SDS011;14253;44.840;10.444;2022-12-01T21:06:32;101.93;;;46.50;;
26620;SDS011;14253;44.840;10.444;2022-12-01T21:08:59;106.03;;;48.03;;
26620;SDS011;14253;44.840;10.444;2022-12-01T21:11:28;95.78;;;46.35;;
26620;SDS011;14253;44.840;10.444;2022-12-01T21:14:26;80.43;;;42.10;;
26620;SDS011;14253;44.840;10.444;2022-12-01T21:17:16;96.40;;;46.75;;
26620;SDS011;14253;44.840;10.444;2022-12-01T21:20:35;97.97;;;45.58;;
26620;SDS011;14253;44.840;10.444;2022-12-01T21:22:53;91.20;;;46.25;;
26620;SDS011;14253;44.840;10.444;2022-12-01T21:25:26;108.63;;;49.92;;
26620;SDS011;14253;44.840;10.444;2022-12-01T21:27:54;110.22;;;50.17;;
26620;SDS011;14253;44.840;10.444;2022-12-01T21:30:24;104.70;;;48.10;;
26620;SDS011;14253;44.840;10.444;2022-12-01T21:32:50;107.88;;;49.78;;
26620;SDS011;14253;44.840;10.444;2022-12-01T21:37:48;114.40;;;56.08;;
26620;SDS011;14253;44.840;10.444;2022-12-01T21:40:19;119.13;;;57.25;;
26620;SDS011;14253;44.840;10.444;2022-12-01T21:42:47;138.07;;;64.32;;
26620;SDS011;14253;44.840;10.444;2022-12-01T21:47:46;177.02;;;77.95;;
26620;SDS011;14253;44.840;10.444;2022-12-01T21:50:16;190.48;;;76.63;;
26620;SDS011;14253;44.840;10.444;2022-12-01T21:52:46;152.93;;;66.22;;
26620;SDS011;14253;44.840;10.444;2022-12-01T21:57:42;142.50;;;64.15;;
26620;SDS011;14253;44.840;10.444;2022-12-01T22:05:41;110.20;;;50.85;;
26620;SDS011;14253;44.840;10.444;2022-12-01T22:11:03;121.60;;;53.17;;
26620;SDS011;14253;44.840;10.444;2022-12-01T22:13:45;98.93;;;48.50;;
26620;SDS011;14253;44.840;10.444;2022-12-01T22:16:18;95.53;;;47.80;;
26620;SDS011;14253;44.840;10.444;2022-12-01T22:18:51;108.47;;;49.67;;
26620;SDS011;14253;44.840;10.444;2022-12-01T22:23:48;103.85;;;49.08;;
26620;SDS011;14253;44.840;10.444;2022-12-01T22:26:20;105.88;;;49.42;;
26620;SDS011;14253;44.840;10.444;2022-12-01T22:28:48;96.88;;;48.95;;
26620;SDS011;14253;44.840;10.444;2022-12-01T22:31:19;113.40;;;51.33;;
26620;SDS011;14253;44.840;10.444;2022-12-01T22:33:46;98.15;;;47.00;;
26620;SDS011;14253;44.840;10.444;2022-12-01T22:36:23;96.90;;;50.17;;
26620;SDS011;14253;44.840;10.444;2022-12-01T22:38:51;93.85;;;48.28;;
26620;SDS011;14253;44.840;10.444;2022-12-01T22:41:18;91.35;;;47.10;;
26620;SDS011;14253;44.840;10.444;2022-12-01T22:46:26;97.80;;;46.78;;
26620;SDS011;14253;44.840;10.444;2022-12-01T22:49:01;97.22;;;48.47;;
26620;SDS011;14253;44.840;10.444;2022-12-01T22:51:29;106.88;;;50.65;;
26620;SDS011;14253;44.840;10.444;2022-12-01T22:56:45;94.22;;;46.45;;
26620;SDS011;14253;44.840;10.444;2022-12-01T22:59:13;94.25;;;47.63;;
26620;SDS011;14253;44.840;10.444;2022-12-01T23:04:24;91.43;;;44.25;;
26620;SDS011;14253;44.840;10.444;2022-12-01T23:09:28;98.95;;;51.17;;
26620;SDS011;14253;44.840;10.444;2022-12-01T23:14:36;103.70;;;50.72;;
26620;SDS011;14253;44.840;10.444;2022-12-01T23:17:06;97.10;;;49.38;;
26620;SDS011;14253;44.840;10.444;2022-12-01T23:19:37;86.25;;;42.75;;
26620;SDS011;14253;44.840;10.444;2022-12-01T23:22:03;115.07;;;54.30;;
26620;SDS011;14253;44.840;10.444;2022-12-01T23:24:29;108.75;;;52.42;;
26620;SDS011;14253;44.840;10.444;2022-12-01T23:26:55;112.28;;;55.72;;
26620;SDS011;14253;44.840;10.444;2022-12-01T23:29:21;135.27;;;64.63;;
26620;SDS011;14253;44.840;10.444;2022-12-01T23:31:47;108.93;;;54.15;;
26620;SDS011;14253;44.840;10.444;2022-12-01T23:34:15;104.55;;;49.65;;
26620;SDS011;14253;44.840;10.444;2022-12-01T23:36:43;93.97;;;47.10;;
26620;SDS011;14253;44.840;10.444;2022-12-01T23:39:11;88.93;;;42.78;;
26620;SDS011;14253;44.840;10.444;2022-12-01T23:41:44;93.20;;;43.78;;
26620;SDS011;14253;44.840;10.444;2022-12-01T23:44:22;90.43;;;45.30;;
26620;SDS011;14253;44.840;10.444;2022-12-01T23:46:51;87.68;;;45.75;;
26620;SDS011;14253;44.840;10.444;2022-12-01T23:49:19;90.97;;;44.35;;
26620;SDS011;14253;44.840;10.444;2022-12-01T23:51:52;93.15;;;45.85;;
26620;SDS011;14253;44.840;10.444;2022-12-01T23:54:23;92.10;;;44.97;;
26620;SDS011;14253;44.840;10.444;2022-12-01T23:56:54;94.20;;;46.90;;
26620;SDS011;14253;44.840;10.444;2022-12-01T23:59:21;94.32;;;45.95;;
